sensor_id;sensor_type;location;lat;lon;timestamp;P1;durP1;ratioP1;P2;durP2;ratioP2
10295;SDS011;5193;51.032;6.356;2023-06-22T00:02:16;6.60;;;5.13;;
10295;SDS011;5193;51.032;6.356;2023-06-22T00:04:42;7.83;;;5.10;;
10295;SDS011;5193;51.032;6.356;2023-06-22T00:07:08;7.67;;;4.63;;
10295;SDS011;5193;51.032;6.356;2023-06-22T00:09:33;6.30;;;4.87;;
10295;SDS011;5193;51.032;6.356;2023-06-22T00:11:59;5.43;;;4.93;;
10295;SDS011;5193;51.032;6.356;2023-06-22T00:14:24;5.73;;;5.03;;
10295;SDS011;5193;51.032;6.356;2023-06-22T00:16:50;6.77;;;5.00;;
10295;SDS011;5193;51.032;6.356;2023-06-22T00:19:20;5.53;;;4.47;;
10295;SDS011;5193;51.032;6.356;2023-06-22T00:21:48;8.83;;;4.43;;
10295;SDS011;5193;51.032;6.356;2023-06-22T00:24:18;6.17;;;4.90;;
10295;SDS011;5193;51.032;6.356;2023-06-22T00:26:45;6.20;;;5.00;;
10295;SDS011;5193;51.032;6.356;2023-06-22T00:29:10;11.30;;;4.80;;
10295;SDS011;5193;51.032;6.356;2023-06-22T00:31:36;7.43;;;4.47;;
10295;SDS011;5193;51.032;6.356;2023-06-22T00:34:02;10.93;;;5.47;;
10295;SDS011;5193;51.032;6.356;2023-06-22T00:36:27;6.17;;;5.40;;
10295;SDS011;5193;51.032;6.356;2023-06-22T00:38:53;6.80;;;5.17;;
10295;SDS011;5193;51.032;6.356;2023-06-22T00:41:18;7.47;;;5.00;;
10295;SDS011;5193;51.032;6.356;2023-06-22T00:43:44;7.17;;;4.93;;
10295;SDS011;5193;51.032;6.356;2023-06-22T00:46:10;6.57;;;5.27;;
10295;SDS011;5193;51.032;6.356;2023-06-22T00:48:36;7.10;;;5.57;;
10295;SDS011;5193;51.032;6.356;2023-06-22T00:51:02;6.10;;;5.50;;
10295;SDS011;5193;51.032;6.356;2023-06-22T00:53:28;7.23;;;5.60;;
10295;SDS011;5193;51.032;6.356;2023-06-22T00:55:54;7.97;;;6.03;;
10295;SDS011;5193;51.032;6.356;2023-06-22T00:58:21;7.97;;;5.70;;
10295;SDS011;5193;51.032;6.356;2023-06-22T01:00:47;8.37;;;5.73;;
10295;SDS011;5193;51.032;6.356;2023-06-22T01:03:13;6.97;;;6.17;;
10295;SDS011;5193;51.032;6.356;2023-06-22T01:05:39;8.63;;;6.30;;
10295;SDS011;5193;51.032;6.356;2023-06-22T01:08:12;10.73;;;7.37;;
10295;SDS011;5193;51.032;6.356;2023-06-22T01:11:10;8.00;;;6.83;;
10295;SDS011;5193;51.032;6.356;2023-06-22T01:16:27;10.03;;;6.90;;
10295;SDS011;5193;51.032;6.356;2023-06-22T01:18:55;9.30;;;7.07;;
10295;SDS011;5193;51.032;6.356;2023-06-22T01:21:26;9.83;;;6.70;;
10295;SDS011;5193;51.032;6.356;2023-06-22T01:27:18;8.63;;;6.70;;
10295;SDS011;5193;51.032;6.356;2023-06-22T01:30:02;9.43;;;7.33;;
10295;SDS011;5193;51.032;6.356;2023-06-22T01:32:31;10.10;;;6.70;;
10295;SDS011;5193;51.032;6.356;2023-06-22T01:35:00;13.40;;;7.60;;
10295;SDS011;5193;51.032;6.356;2023-06-22T01:37:28;9.30;;;7.00;;
10295;SDS011;5193;51.032;6.356;2023-06-22T01:39:57;12.97;;;7.70;;
10295;SDS011;5193;51.032;6.356;2023-06-22T01:42:24;12.00;;;7.37;;
10295;SDS011;5193;51.032;6.356;2023-06-22T01:44:50;9.57;;;6.67;;
10295;SDS011;5193;51.032;6.356;2023-06-22T01:47:18;10.03;;;6.73;;
10295;SDS011;5193;51.032;6.356;2023-06-22T01:49:44;9.10;;;6.80;;
10295;SDS011;5193;51.032;6.356;2023-06-22T01:52:10;13.40;;;7.43;;
10295;SDS011;5193;51.032;6.356;2023-06-22T01:54:36;10.47;;;7.27;;
10295;SDS011;5193;51.032;6.356;2023-06-22T01:57:03;10.40;;;7.83;;
10295;SDS011;5193;51.032;6.356;2023-06-22T01:59:31;10.70;;;7.20;;
10295;SDS011;5193;51.032;6.356;2023-06-22T02:02:02;8.63;;;7.40;;
10295;SDS011;5193;51.032;6.356;2023-06-22T02:04:33;11.13;;;7.67;;
10295;SDS011;5193;51.032;6.356;2023-06-22T02:07:09;12.90;;;7.87;;
10295;SDS011;5193;51.032;6.356;2023-06-22T02:09:38;8.97;;;7.50;;
10295;SDS011;5193;51.032;6.356;2023-06-22T02:12:07;10.13;;;7.80;;
10295;SDS011;5193;51.032;6.356;2023-06-22T02:14:35;8.47;;;7.20;;
10295;SDS011;5193;51.032;6.356;2023-06-22T02:17:02;11.30;;;7.47;;
10295;SDS011;5193;51.032;6.356;2023-06-22T02:19:29;11.23;;;8.10;;
10295;SDS011;5193;51.032;6.356;2023-06-22T02:21:58;8.87;;;7.50;;
10295;SDS011;5193;51.032;6.356;2023-06-22T02:24:23;12.83;;;8.40;;
10295;SDS011;5193;51.032;6.356;2023-06-22T02:26:49;9.83;;;7.40;;
10295;SDS011;5193;51.032;6.356;2023-06-22T02:29:14;10.93;;;7.63;;
10295;SDS011;5193;51.032;6.356;2023-06-22T02:31:40;10.27;;;7.50;;
10295;SDS011;5193;51.032;6.356;2023-06-22T02:34:06;10.60;;;7.10;;
10295;SDS011;5193;51.032;6.356;2023-06-22T02:36:32;13.73;;;7.97;;
10295;SDS011;5193;51.032;6.356;2023-06-22T02:38:58;10.17;;;7.53;;
10295;SDS011;5193;51.032;6.356;2023-06-22T02:41:26;9.77;;;7.70;;
10295;SDS011;5193;51.032;6.356;2023-06-22T02:43:52;11.90;;;7.73;;
10295;SDS011;5193;51.032;6.356;2023-06-22T02:46:17;13.57;;;7.33;;
10295;SDS011;5193;51.032;6.356;2023-06-22T02:48:43;12.97;;;8.10;;
10295;SDS011;5193;51.032;6.356;2023-06-22T02:51:09;16.47;;;8.43;;
10295;SDS011;5193;51.032;6.356;2023-06-22T02:53:34;9.77;;;7.47;;
10295;SDS011;5193;51.032;6.356;2023-06-22T02:56:03;9.27;;;7.60;;
10295;SDS011;5193;51.032;6.356;2023-06-22T02:58:32;10.13;;;7.70;;
10295;SDS011;5193;51.032;6.356;2023-06-22T03:01:04;13.60;;;8.03;;
10295;SDS011;5193;51.032;6.356;2023-06-22T03:03:30;10.33;;;7.27;;
10295;SDS011;5193;51.032;6.356;2023-06-22T03:05:56;8.50;;;7.37;;
10295;SDS011;5193;51.032;6.356;2023-06-22T03:08:21;11.97;;;8.03;;
10295;SDS011;5193;51.032;6.356;2023-06-22T03:10:47;11.03;;;7.73;;
10295;SDS011;5193;51.032;6.356;2023-06-22T03:13:13;12.93;;;8.23;;
10295;SDS011;5193;51.032;6.356;2023-06-22T03:15:38;11.70;;;8.33;;
10295;SDS011;5193;51.032;6.356;2023-06-22T03:18:04;11.77;;;8.10;;
10295;SDS011;5193;51.032;6.356;2023-06-22T03:20:30;10.57;;;7.77;;
10295;SDS011;5193;51.032;6.356;2023-06-22T03:22:58;13.23;;;9.10;;
10295;SDS011;5193;51.032;6.356;2023-06-22T03:25:24;11.87;;;8.03;;
10295;SDS011;5193;51.032;6.356;2023-06-22T03:27:49;10.30;;;7.90;;
10295;SDS011;5193;51.032;6.356;2023-06-22T03:30:15;16.40;;;8.00;;
10295;SDS011;5193;51.032;6.356;2023-06-22T03:32:41;12.73;;;8.73;;
10295;SDS011;5193;51.032;6.356;2023-06-22T03:35:08;14.23;;;9.03;;
10295;SDS011;5193;51.032;6.356;2023-06-22T03:37:34;13.73;;;8.87;;
10295;SDS011;5193;51.032;6.356;2023-06-22T03:39:59;12.73;;;8.83;;
10295;SDS011;5193;51.032;6.356;2023-06-22T03:42:25;11.50;;;8.73;;
10295;SDS011;5193;51.032;6.356;2023-06-22T03:44:51;12.30;;;8.37;;
10295;SDS011;5193;51.032;6.356;2023-06-22T03:47:17;13.77;;;8.83;;
10295;SDS011;5193;51.032;6.356;2023-06-22T03:49:42;13.03;;;9.13;;
10295;SDS011;5193;51.032;6.356;2023-06-22T03:52:08;10.63;;;8.43;;
10295;SDS011;5193;51.032;6.356;2023-06-22T03:54:34;14.10;;;9.10;;
10295;SDS011;5193;51.032;6.356;2023-06-22T03:57:00;11.87;;;8.37;;
10295;SDS011;5193;51.032;6.356;2023-06-22T03:59:25;12.77;;;9.47;;
10295;SDS011;5193;51.032;6.356;2023-06-22T04:01:51;11.17;;;8.93;;
10295;SDS011;5193;51.032;6.356;2023-06-22T04:04:17;11.20;;;8.47;;
10295;SDS011;5193;51.032;6.356;2023-06-22T04:06:43;14.67;;;9.20;;
10295;SDS011;5193;51.032;6.356;2023-06-22T04:09:08;11.73;;;9.83;;
10295;SDS011;5193;51.032;6.356;2023-06-22T04:11:34;13.03;;;9.67;;
10295;SDS011;5193;51.032;6.356;2023-06-22T04:14:00;12.07;;;9.63;;
10295;SDS011;5193;51.032;6.356;2023-06-22T04:16:25;12.77;;;9.83;;
10295;SDS011;5193;51.032;6.356;2023-06-22T04:18:51;12.03;;;9.50;;
10295;SDS011;5193;51.032;6.356;2023-06-22T04:21:17;13.80;;;9.60;;
10295;SDS011;5193;51.032;6.356;2023-06-22T04:23:44;14.73;;;10.57;;
10295;SDS011;5193;51.032;6.356;2023-06-22T04:26:11;14.23;;;9.97;;
10295;SDS011;5193;51.032;6.356;2023-06-22T04:28:37;15.00;;;9.83;;
10295;SDS011;5193;51.032;6.356;2023-06-22T04:31:02;12.60;;;9.60;;
10295;SDS011;5193;51.032;6.356;2023-06-22T04:33:28;14.77;;;9.60;;
10295;SDS011;5193;51.032;6.356;2023-06-22T04:35:54;15.77;;;10.27;;
10295;SDS011;5193;51.032;6.356;2023-06-22T04:38:22;13.83;;;10.93;;
10295;SDS011;5193;51.032;6.356;2023-06-22T04:40:48;16.90;;;10.27;;
10295;SDS011;5193;51.032;6.356;2023-06-22T04:43:14;14.87;;;9.73;;
10295;SDS011;5193;51.032;6.356;2023-06-22T04:45:41;16.50;;;10.33;;
10295;SDS011;5193;51.032;6.356;2023-06-22T04:48:07;11.97;;;9.13;;
10295;SDS011;5193;51.032;6.356;2023-06-22T04:50:34;13.33;;;9.40;;
10295;SDS011;5193;51.032;6.356;2023-06-22T04:53:03;15.60;;;9.83;;
10295;SDS011;5193;51.032;6.356;2023-06-22T04:55:31;12.07;;;9.37;;
10295;SDS011;5193;51.032;6.356;2023-06-22T04:57:57;10.33;;;8.83;;
10295;SDS011;5193;51.032;6.356;2023-06-22T05:00:29;13.43;;;9.33;;
10295;SDS011;5193;51.032;6.356;2023-06-22T05:02:55;12.87;;;8.07;;
10295;SDS011;5193;51.032;6.356;2023-06-22T05:05:22;15.70;;;9.47;;
10295;SDS011;5193;51.032;6.356;2023-06-22T05:07:49;12.70;;;9.23;;
10295;SDS011;5193;51.032;6.356;2023-06-22T05:10:18;14.20;;;9.27;;
10295;SDS011;5193;51.032;6.356;2023-06-22T05:12:44;13.53;;;9.17;;
10295;SDS011;5193;51.032;6.356;2023-06-22T05:15:10;9.83;;;8.63;;
10295;SDS011;5193;51.032;6.356;2023-06-22T05:17:36;12.70;;;9.43;;
10295;SDS011;5193;51.032;6.356;2023-06-22T05:20:07;13.10;;;8.63;;
10295;SDS011;5193;51.032;6.356;2023-06-22T05:22:34;10.93;;;8.60;;
10295;SDS011;5193;51.032;6.356;2023-06-22T05:24:59;10.93;;;8.27;;
10295;SDS011;5193;51.032;6.356;2023-06-22T05:27:25;17.50;;;9.20;;
10295;SDS011;5193;51.032;6.356;2023-06-22T05:29:51;9.87;;;8.27;;
10295;SDS011;5193;51.032;6.356;2023-06-22T05:32:16;15.67;;;9.43;;
10295;SDS011;5193;51.032;6.356;2023-06-22T05:34:42;14.87;;;8.47;;
10295;SDS011;5193;51.032;6.356;2023-06-22T05:37:07;21.53;;;8.60;;
10295;SDS011;5193;51.032;6.356;2023-06-22T05:39:34;13.00;;;9.37;;
10295;SDS011;5193;51.032;6.356;2023-06-22T05:42:03;14.93;;;8.80;;
10295;SDS011;5193;51.032;6.356;2023-06-22T05:44:30;14.77;;;8.47;;
10295;SDS011;5193;51.032;6.356;2023-06-22T05:46:55;10.80;;;9.07;;
10295;SDS011;5193;51.032;6.356;2023-06-22T05:49:21;14.53;;;9.93;;
10295;SDS011;5193;51.032;6.356;2023-06-22T05:51:47;15.97;;;9.20;;
10295;SDS011;5193;51.032;6.356;2023-06-22T05:54:13;21.33;;;9.20;;
10295;SDS011;5193;51.032;6.356;2023-06-22T05:56:40;16.33;;;9.63;;
10295;SDS011;5193;51.032;6.356;2023-06-22T05:59:06;17.10;;;8.70;;
10295;SDS011;5193;51.032;6.356;2023-06-22T06:01:31;13.17;;;9.60;;
10295;SDS011;5193;51.032;6.356;2023-06-22T06:04:01;11.57;;;8.87;;
10295;SDS011;5193;51.032;6.356;2023-06-22T06:06:29;11.60;;;9.13;;
10295;SDS011;5193;51.032;6.356;2023-06-22T06:08:55;12.10;;;9.37;;
10295;SDS011;5193;51.032;6.356;2023-06-22T06:11:21;11.03;;;9.30;;
10295;SDS011;5193;51.032;6.356;2023-06-22T06:13:47;13.63;;;9.50;;
10295;SDS011;5193;51.032;6.356;2023-06-22T06:16:12;13.13;;;9.70;;
10295;SDS011;5193;51.032;6.356;2023-06-22T06:18:38;14.23;;;10.33;;
10295;SDS011;5193;51.032;6.356;2023-06-22T06:21:03;11.27;;;9.37;;
10295;SDS011;5193;51.032;6.356;2023-06-22T06:23:29;10.67;;;9.57;;
10295;SDS011;5193;51.032;6.356;2023-06-22T06:25:55;12.33;;;9.87;;
10295;SDS011;5193;51.032;6.356;2023-06-22T06:28:20;13.60;;;9.57;;
10295;SDS011;5193;51.032;6.356;2023-06-22T06:30:46;12.90;;;9.17;;
10295;SDS011;5193;51.032;6.356;2023-06-22T06:33:12;17.60;;;10.10;;
10295;SDS011;5193;51.032;6.356;2023-06-22T06:35:38;14.10;;;9.73;;
10295;SDS011;5193;51.032;6.356;2023-06-22T06:38:03;11.77;;;9.80;;
10295;SDS011;5193;51.032;6.356;2023-06-22T06:40:29;18.53;;;9.47;;
10295;SDS011;5193;51.032;6.356;2023-06-22T06:42:55;14.63;;;9.60;;
10295;SDS011;5193;51.032;6.356;2023-06-22T06:45:21;14.27;;;9.53;;
10295;SDS011;5193;51.032;6.356;2023-06-22T06:47:48;14.80;;;9.07;;
10295;SDS011;5193;51.032;6.356;2023-06-22T06:50:14;13.27;;;8.73;;
10295;SDS011;5193;51.032;6.356;2023-06-22T06:52:40;15.70;;;9.10;;
10295;SDS011;5193;51.032;6.356;2023-06-22T06:55:06;12.30;;;9.23;;
10295;SDS011;5193;51.032;6.356;2023-06-22T06:57:35;21.83;;;9.77;;
10295;SDS011;5193;51.032;6.356;2023-06-22T07:00:02;12.97;;;10.10;;
10295;SDS011;5193;51.032;6.356;2023-06-22T07:02:34;16.23;;;10.23;;
10295;SDS011;5193;51.032;6.356;2023-06-22T07:04:59;20.77;;;11.30;;
10295;SDS011;5193;51.032;6.356;2023-06-22T07:07:25;19.93;;;10.80;;
10295;SDS011;5193;51.032;6.356;2023-06-22T07:09:50;20.43;;;10.67;;
10295;SDS011;5193;51.032;6.356;2023-06-22T07:12:16;22.37;;;11.47;;
10295;SDS011;5193;51.032;6.356;2023-06-22T07:14:42;24.37;;;10.53;;
10295;SDS011;5193;51.032;6.356;2023-06-22T07:17:07;19.37;;;10.17;;
10295;SDS011;5193;51.032;6.356;2023-06-22T07:19:33;16.77;;;10.63;;
10295;SDS011;5193;51.032;6.356;2023-06-22T07:21:58;21.73;;;10.27;;
10295;SDS011;5193;51.032;6.356;2023-06-22T07:24:24;17.80;;;11.10;;
10295;SDS011;5193;51.032;6.356;2023-06-22T07:26:50;18.03;;;10.13;;
10295;SDS011;5193;51.032;6.356;2023-06-22T07:29:16;16.00;;;11.07;;
10295;SDS011;5193;51.032;6.356;2023-06-22T07:31:42;18.23;;;11.20;;
10295;SDS011;5193;51.032;6.356;2023-06-22T07:34:08;17.37;;;10.50;;
10295;SDS011;5193;51.032;6.356;2023-06-22T07:36:34;16.50;;;9.90;;
10295;SDS011;5193;51.032;6.356;2023-06-22T07:39:00;15.73;;;10.70;;
10295;SDS011;5193;51.032;6.356;2023-06-22T07:41:28;14.40;;;11.53;;
10295;SDS011;5193;51.032;6.356;2023-06-22T07:43:53;16.40;;;10.73;;
10295;SDS011;5193;51.032;6.356;2023-06-22T07:46:19;12.70;;;9.63;;
10295;SDS011;5193;51.032;6.356;2023-06-22T07:48:44;14.77;;;10.80;;
10295;SDS011;5193;51.032;6.356;2023-06-22T07:51:10;13.60;;;11.17;;
10295;SDS011;5193;51.032;6.356;2023-06-22T07:53:39;17.80;;;10.00;;
10295;SDS011;5193;51.032;6.356;2023-06-22T07:56:09;25.97;;;10.00;;
10295;SDS011;5193;51.032;6.356;2023-06-22T07:58:35;16.43;;;9.83;;
10295;SDS011;5193;51.032;6.356;2023-06-22T08:01:01;17.73;;;9.67;;
10295;SDS011;5193;51.032;6.356;2023-06-22T08:03:27;17.33;;;10.00;;
10295;SDS011;5193;51.032;6.356;2023-06-22T08:05:53;16.50;;;11.07;;
10295;SDS011;5193;51.032;6.356;2023-06-22T08:08:19;15.87;;;10.50;;
10295;SDS011;5193;51.032;6.356;2023-06-22T08:10:44;13.47;;;8.90;;
10295;SDS011;5193;51.032;6.356;2023-06-22T08:13:10;17.17;;;9.70;;
10295;SDS011;5193;51.032;6.356;2023-06-22T08:15:36;20.80;;;10.43;;
10295;SDS011;5193;51.032;6.356;2023-06-22T08:18:01;15.27;;;10.47;;
10295;SDS011;5193;51.032;6.356;2023-06-22T08:20:27;17.97;;;9.37;;
10295;SDS011;5193;51.032;6.356;2023-06-22T08:22:53;18.40;;;10.20;;
10295;SDS011;5193;51.032;6.356;2023-06-22T08:25:19;16.97;;;9.97;;
10295;SDS011;5193;51.032;6.356;2023-06-22T08:27:46;14.03;;;9.53;;
10295;SDS011;5193;51.032;6.356;2023-06-22T08:30:15;15.83;;;9.07;;
10295;SDS011;5193;51.032;6.356;2023-06-22T08:32:41;19.03;;;9.97;;
10295;SDS011;5193;51.032;6.356;2023-06-22T08:35:07;10.73;;;9.10;;
10295;SDS011;5193;51.032;6.356;2023-06-22T08:37:33;12.40;;;8.93;;
10295;SDS011;5193;51.032;6.356;2023-06-22T08:40:00;17.37;;;8.90;;
10295;SDS011;5193;51.032;6.356;2023-06-22T08:42:29;11.30;;;8.30;;
10295;SDS011;5193;51.032;6.356;2023-06-22T08:44:55;10.53;;;8.47;;
10295;SDS011;5193;51.032;6.356;2023-06-22T08:47:20;11.37;;;7.90;;
10295;SDS011;5193;51.032;6.356;2023-06-22T08:49:46;11.87;;;8.87;;
10295;SDS011;5193;51.032;6.356;2023-06-22T08:52:12;9.70;;;8.40;;
10295;SDS011;5193;51.032;6.356;2023-06-22T08:54:38;11.27;;;7.80;;
10295;SDS011;5193;51.032;6.356;2023-06-22T08:57:04;10.87;;;7.13;;
10295;SDS011;5193;51.032;6.356;2023-06-22T08:59:29;14.87;;;8.10;;
10295;SDS011;5193;51.032;6.356;2023-06-22T09:01:55;11.20;;;7.37;;
10295;SDS011;5193;51.032;6.356;2023-06-22T09:04:21;15.00;;;9.10;;
10295;SDS011;5193;51.032;6.356;2023-06-22T09:06:47;11.50;;;8.13;;
10295;SDS011;5193;51.032;6.356;2023-06-22T09:09:15;19.43;;;8.33;;
10295;SDS011;5193;51.032;6.356;2023-06-22T09:11:41;8.63;;;7.67;;
10295;SDS011;5193;51.032;6.356;2023-06-22T09:14:08;11.07;;;7.27;;
10295;SDS011;5193;51.032;6.356;2023-06-22T09:16:33;9.90;;;7.00;;
10295;SDS011;5193;51.032;6.356;2023-06-22T09:18:59;9.63;;;7.40;;
10295;SDS011;5193;51.032;6.356;2023-06-22T09:21:25;8.47;;;7.33;;
10295;SDS011;5193;51.032;6.356;2023-06-22T09:23:50;9.87;;;7.50;;
10295;SDS011;5193;51.032;6.356;2023-06-22T09:26:19;13.00;;;7.60;;
10295;SDS011;5193;51.032;6.356;2023-06-22T09:28:45;10.90;;;8.20;;
10295;SDS011;5193;51.032;6.356;2023-06-22T09:31:11;11.40;;;7.47;;
10295;SDS011;5193;51.032;6.356;2023-06-22T09:33:36;15.17;;;6.90;;
10295;SDS011;5193;51.032;6.356;2023-06-22T09:36:05;7.07;;;6.37;;
10295;SDS011;5193;51.032;6.356;2023-06-22T09:38:37;12.23;;;6.47;;
10295;SDS011;5193;51.032;6.356;2023-06-22T09:41:03;11.93;;;6.70;;
10295;SDS011;5193;51.032;6.356;2023-06-22T09:43:30;8.93;;;6.17;;
10295;SDS011;5193;51.032;6.356;2023-06-22T09:45:57;7.97;;;6.57;;
10295;SDS011;5193;51.032;6.356;2023-06-22T09:48:23;7.53;;;6.07;;
10295;SDS011;5193;51.032;6.356;2023-06-22T09:50:49;6.87;;;5.87;;
10295;SDS011;5193;51.032;6.356;2023-06-22T09:53:14;6.47;;;5.60;;
10295;SDS011;5193;51.032;6.356;2023-06-22T09:55:40;7.73;;;5.73;;
10295;SDS011;5193;51.032;6.356;2023-06-22T09:58:06;10.67;;;5.67;;
10295;SDS011;5193;51.032;6.356;2023-06-22T10:00:31;7.17;;;5.77;;
10295;SDS011;5193;51.032;6.356;2023-06-22T10:02:57;6.20;;;5.20;;
10295;SDS011;5193;51.032;6.356;2023-06-22T10:05:22;8.23;;;5.22;;
10295;SDS011;5193;51.032;6.356;2023-06-22T10:07:48;7.67;;;5.67;;
10295;SDS011;5193;51.032;6.356;2023-06-22T10:10:14;6.63;;;5.17;;
10295;SDS011;5193;51.032;6.356;2023-06-22T10:12:45;5.40;;;4.67;;
10295;SDS011;5193;51.032;6.356;2023-06-22T10:15:11;5.20;;;4.70;;
10295;SDS011;5193;51.032;6.356;2023-06-22T10:17:37;6.43;;;5.00;;
10295;SDS011;5193;51.032;6.356;2023-06-22T10:20:03;5.10;;;4.60;;
10295;SDS011;5193;51.032;6.356;2023-06-22T10:22:37;6.17;;;4.73;;
10295;SDS011;5193;51.032;6.356;2023-06-22T10:25:12;6.83;;;4.50;;
10295;SDS011;5193;51.032;6.356;2023-06-22T10:27:38;11.57;;;5.17;;
10295;SDS011;5193;51.032;6.356;2023-06-22T10:30:07;8.27;;;5.43;;
10295;SDS011;5193;51.032;6.356;2023-06-22T10:32:34;5.90;;;5.13;;
10295;SDS011;5193;51.032;6.356;2023-06-22T10:34:59;7.00;;;4.90;;
10295;SDS011;5193;51.032;6.356;2023-06-22T10:37:25;6.27;;;4.97;;
10295;SDS011;5193;51.032;6.356;2023-06-22T10:39:51;6.20;;;5.60;;
10295;SDS011;5193;51.032;6.356;2023-06-22T10:42:16;7.57;;;5.53;;
10295;SDS011;5193;51.032;6.356;2023-06-22T10:44:42;8.70;;;5.80;;
10295;SDS011;5193;51.032;6.356;2023-06-22T10:47:09;7.67;;;6.20;;
10295;SDS011;5193;51.032;6.356;2023-06-22T10:49:37;9.90;;;6.23;;
10295;SDS011;5193;51.032;6.356;2023-06-22T10:52:03;12.43;;;6.43;;
10295;SDS011;5193;51.032;6.356;2023-06-22T10:54:29;10.47;;;6.30;;
10295;SDS011;5193;51.032;6.356;2023-06-22T10:56:55;10.17;;;5.97;;
10295;SDS011;5193;51.032;6.356;2023-06-22T10:59:20;7.43;;;5.60;;
10295;SDS011;5193;51.032;6.356;2023-06-22T11:01:48;12.07;;;6.23;;
10295;SDS011;5193;51.032;6.356;2023-06-22T11:04:14;9.50;;;5.97;;
10295;SDS011;5193;51.032;6.356;2023-06-22T11:06:39;9.43;;;6.00;;
10295;SDS011;5193;51.032;6.356;2023-06-22T11:09:05;11.57;;;6.17;;
10295;SDS011;5193;51.032;6.356;2023-06-22T11:11:31;10.30;;;6.30;;
10295;SDS011;5193;51.032;6.356;2023-06-22T11:13:57;9.43;;;6.10;;
10295;SDS011;5193;51.032;6.356;2023-06-22T11:16:23;10.27;;;6.77;;
10295;SDS011;5193;51.032;6.356;2023-06-22T11:18:48;7.70;;;6.07;;
10295;SDS011;5193;51.032;6.356;2023-06-22T11:21:14;10.90;;;6.77;;
10295;SDS011;5193;51.032;6.356;2023-06-22T11:23:39;9.60;;;7.53;;
10295;SDS011;5193;51.032;6.356;2023-06-22T11:26:07;7.73;;;6.63;;
10295;SDS011;5193;51.032;6.356;2023-06-22T11:28:32;16.87;;;8.47;;
10295;SDS011;5193;51.032;6.356;2023-06-22T11:30:58;12.00;;;7.53;;
10295;SDS011;5193;51.032;6.356;2023-06-22T11:33:23;8.43;;;7.33;;
10295;SDS011;5193;51.032;6.356;2023-06-22T11:35:49;11.70;;;8.57;;
10295;SDS011;5193;51.032;6.356;2023-06-22T11:38:15;10.10;;;7.07;;
10295;SDS011;5193;51.032;6.356;2023-06-22T11:40:40;9.20;;;7.93;;
10295;SDS011;5193;51.032;6.356;2023-06-22T11:43:06;12.03;;;8.20;;
10295;SDS011;5193;51.032;6.356;2023-06-22T11:45:31;14.13;;;8.20;;
10295;SDS011;5193;51.032;6.356;2023-06-22T11:47:57;12.67;;;7.57;;
10295;SDS011;5193;51.032;6.356;2023-06-22T11:50:23;11.73;;;7.73;;
10295;SDS011;5193;51.032;6.356;2023-06-22T11:52:49;11.13;;;7.17;;
10295;SDS011;5193;51.032;6.356;2023-06-22T11:55:14;11.57;;;6.90;;
10295;SDS011;5193;51.032;6.356;2023-06-22T11:57:51;8.40;;;6.83;;
10295;SDS011;5193;51.032;6.356;2023-06-22T12:00:20;11.73;;;8.47;;
10295;SDS011;5193;51.032;6.356;2023-06-22T12:02:48;10.03;;;8.97;;
10295;SDS011;5193;51.032;6.356;2023-06-22T12:05:14;14.27;;;10.30;;
10295;SDS011;5193;51.032;6.356;2023-06-22T12:07:40;10.37;;;9.23;;
10295;SDS011;5193;51.032;6.356;2023-06-22T12:10:06;11.43;;;10.30;;
10295;SDS011;5193;51.032;6.356;2023-06-22T12:12:32;11.70;;;10.50;;
10295;SDS011;5193;51.032;6.356;2023-06-22T12:14:58;12.67;;;10.03;;
10295;SDS011;5193;51.032;6.356;2023-06-22T12:17:28;14.20;;;11.47;;
10295;SDS011;5193;51.032;6.356;2023-06-22T12:19:54;13.30;;;10.63;;
10295;SDS011;5193;51.032;6.356;2023-06-22T12:22:19;11.57;;;9.63;;
10295;SDS011;5193;51.032;6.356;2023-06-22T12:24:45;11.90;;;9.93;;
10295;SDS011;5193;51.032;6.356;2023-06-22T12:27:10;16.37;;;11.57;;
10295;SDS011;5193;51.032;6.356;2023-06-22T12:29:36;13.27;;;10.73;;
10295;SDS011;5193;51.032;6.356;2023-06-22T12:32:02;12.90;;;11.07;;
10295;SDS011;5193;51.032;6.356;2023-06-22T12:34:28;14.90;;;12.80;;
10295;SDS011;5193;51.032;6.356;2023-06-22T12:36:53;18.17;;;13.83;;
10295;SDS011;5193;51.032;6.356;2023-06-22T12:39:19;13.77;;;12.33;;
10295;SDS011;5193;51.032;6.356;2023-06-22T12:41:45;16.83;;;13.43;;
10295;SDS011;5193;51.032;6.356;2023-06-22T12:44:11;16.60;;;13.73;;
10295;SDS011;5193;51.032;6.356;2023-06-22T12:46:37;15.07;;;13.23;;
10295;SDS011;5193;51.032;6.356;2023-06-22T12:49:03;15.90;;;13.40;;
10295;SDS011;5193;51.032;6.356;2023-06-22T12:51:30;15.70;;;13.40;;
10295;SDS011;5193;51.032;6.356;2023-06-22T12:53:55;17.67;;;14.10;;
10295;SDS011;5193;51.032;6.356;2023-06-22T12:56:21;17.10;;;13.57;;
10295;SDS011;5193;51.032;6.356;2023-06-22T12:58:47;18.80;;;13.60;;
10295;SDS011;5193;51.032;6.356;2023-06-22T13:01:13;16.53;;;12.97;;
10295;SDS011;5193;51.032;6.356;2023-06-22T13:03:38;16.27;;;13.00;;
10295;SDS011;5193;51.032;6.356;2023-06-22T13:06:04;14.27;;;12.20;;
10295;SDS011;5193;51.032;6.356;2023-06-22T13:08:30;16.07;;;13.93;;
10295;SDS011;5193;51.032;6.356;2023-06-22T13:10:55;16.00;;;12.60;;
10295;SDS011;5193;51.032;6.356;2023-06-22T13:13:23;15.43;;;12.53;;
10295;SDS011;5193;51.032;6.356;2023-06-22T13:15:49;14.20;;;12.70;;
10295;SDS011;5193;51.032;6.356;2023-06-22T13:18:15;13.73;;;12.23;;
10295;SDS011;5193;51.032;6.356;2023-06-22T13:20:41;13.27;;;11.87;;
10295;SDS011;5193;51.032;6.356;2023-06-22T13:23:07;13.63;;;12.20;;
10295;SDS011;5193;51.032;6.356;2023-06-22T13:25:32;18.07;;;12.83;;
10295;SDS011;5193;51.032;6.356;2023-06-22T13:27:58;15.13;;;13.53;;
10295;SDS011;5193;51.032;6.356;2023-06-22T13:30:23;13.97;;;12.57;;
10295;SDS011;5193;51.032;6.356;2023-06-22T13:32:49;14.33;;;12.83;;
10295;SDS011;5193;51.032;6.356;2023-06-22T13:35:14;15.50;;;13.50;;
10295;SDS011;5193;51.032;6.356;2023-06-22T13:37:40;15.57;;;13.90;;
10295;SDS011;5193;51.032;6.356;2023-06-22T13:40:06;16.53;;;13.87;;
10295;SDS011;5193;51.032;6.356;2023-06-22T13:42:32;16.10;;;13.80;;
10295;SDS011;5193;51.032;6.356;2023-06-22T13:44:58;15.73;;;13.67;;
10295;SDS011;5193;51.032;6.356;2023-06-22T13:47:24;16.90;;;14.17;;
10295;SDS011;5193;51.032;6.356;2023-06-22T13:49:50;17.93;;;15.00;;
10295;SDS011;5193;51.032;6.356;2023-06-22T13:52:15;16.07;;;14.37;;
10295;SDS011;5193;51.032;6.356;2023-06-22T13:54:41;18.83;;;15.07;;
10295;SDS011;5193;51.032;6.356;2023-06-22T13:57:06;18.13;;;16.13;;
10295;SDS011;5193;51.032;6.356;2023-06-22T13:59:32;18.30;;;15.10;;
10295;SDS011;5193;51.032;6.356;2023-06-22T14:01:58;22.47;;;16.67;;
10295;SDS011;5193;51.032;6.356;2023-06-22T14:04:23;20.97;;;18.13;;
10295;SDS011;5193;51.032;6.356;2023-06-22T14:06:49;22.23;;;16.53;;
10295;SDS011;5193;51.032;6.356;2023-06-22T14:09:14;21.43;;;18.13;;
10295;SDS011;5193;51.032;6.356;2023-06-22T14:11:40;22.17;;;17.67;;
10295;SDS011;5193;51.032;6.356;2023-06-22T14:14:05;22.57;;;19.93;;
10295;SDS011;5193;51.032;6.356;2023-06-22T14:16:31;23.30;;;20.30;;
10295;SDS011;5193;51.032;6.356;2023-06-22T14:18:57;24.10;;;20.10;;
10295;SDS011;5193;51.032;6.356;2023-06-22T14:21:22;22.40;;;18.63;;
10295;SDS011;5193;51.032;6.356;2023-06-22T14:23:48;23.47;;;20.50;;
10295;SDS011;5193;51.032;6.356;2023-06-22T14:26:17;21.77;;;19.47;;
10295;SDS011;5193;51.032;6.356;2023-06-22T14:28:44;22.53;;;19.80;;
10295;SDS011;5193;51.032;6.356;2023-06-22T14:31:12;21.10;;;18.77;;
10295;SDS011;5193;51.032;6.356;2023-06-22T14:33:41;19.87;;;17.87;;
10295;SDS011;5193;51.032;6.356;2023-06-22T14:36:10;23.30;;;19.73;;
10295;SDS011;5193;51.032;6.356;2023-06-22T14:38:35;20.80;;;18.27;;
10295;SDS011;5193;51.032;6.356;2023-06-22T14:41:01;23.47;;;19.27;;
10295;SDS011;5193;51.032;6.356;2023-06-22T14:43:26;22.43;;;19.10;;
10295;SDS011;5193;51.032;6.356;2023-06-22T14:45:52;22.43;;;19.07;;
10295;SDS011;5193;51.032;6.356;2023-06-22T14:48:17;20.50;;;17.87;;
10295;SDS011;5193;51.032;6.356;2023-06-22T14:50:43;23.03;;;19.33;;